createdAt,value
2023-03-06T00:00:22.024Z,79.41
2023-03-06T00:02:53.064Z,79.48
2023-03-06T00:05:24.125Z,79.37
2023-03-06T00:07:54.961Z,79.44
2023-03-06T00:10:27.926Z,79.46
2023-03-06T00:13:01.839Z,79.75
2023-03-06T00:15:32.672Z,79.52
2023-03-06T00:18:06.445Z,79.68
2023-03-06T00:20:37.540Z,79.37
2023-03-06T00:23:08.498Z,79.89
2023-03-06T00:25:39.090Z,79.92
2023-03-06T00:28:09.635Z,79.91
2023-03-06T00:30:40.653Z,80.01
2023-03-06T00:33:12.041Z,79.88
2023-03-06T00:35:43.076Z,79.99
2023-03-06T00:38:14.260Z,80.03
2023-03-06T00:40:44.908Z,79.89
2023-03-06T00:43:15.755Z,79.85
2023-03-06T00:45:46.133Z,79.95
2023-03-06T00:48:16.535Z,80.22
2023-03-06T00:50:47.536Z,80.04
2023-03-06T00:53:18.344Z,80.20
2023-03-06T00:55:48.689Z,80.13
2023-03-06T00:58:19.883Z,80.04
2023-03-06T01:00:50.726Z,80.11
2023-03-06T01:03:21.095Z,79.88
2023-03-06T01:05:51.449Z,80.13
2023-03-06T01:08:21.799Z,79.96
2023-03-06T01:10:52.695Z,80.11
2023-03-06T01:13:23.795Z,80.23
2023-03-06T01:15:54.701Z,80.21
2023-03-06T01:18:25.444Z,80.23
2023-03-06T01:20:55.812Z,80.02
2023-03-06T01:23:26.209Z,80.34
2023-03-06T01:25:56.529Z,79.96
2023-03-06T01:28:27.954Z,79.98
2023-03-06T01:30:58.691Z,80.04
2023-03-06T01:33:29.302Z,79.98
2023-03-06T01:36:00.452Z,80.17
2023-03-06T01:38:30.886Z,80.02
2023-03-06T01:41:03.282Z,80.25
2023-03-06T01:43:35.959Z,80.15
2023-03-06T01:46:30.715Z,80.09
2023-03-06T01:49:05.691Z,80.19
2023-03-06T01:51:39.186Z,80.24
2023-03-06T01:54:13.171Z,80.29
2023-03-06T01:56:47.546Z,80.16
2023-03-06T01:59:19.453Z,79.99
2023-03-06T02:01:51.510Z,80.05
2023-03-06T02:04:23.298Z,79.95
2023-03-06T02:06:54.671Z,79.93
2023-03-06T02:09:29.780Z,80.23
2023-03-06T02:12:00.440Z,80.08
2023-03-06T02:14:31.533Z,80.21
2023-03-06T02:17:02.982Z,80.10
2023-03-06T02:19:47.327Z,80.27
2023-03-06T02:22:17.761Z,80.38
2023-03-06T02:24:55.883Z,80.24
2023-03-06T02:27:27.442Z,80.16
2023-03-06T02:29:58.063Z,80.16
2023-03-06T02:32:28.401Z,80.28
2023-03-06T02:35:00.078Z,80.22
2023-03-06T02:37:31.077Z,80.09
2023-03-06T02:40:12.844Z,80.04
2023-03-06T02:42:49.027Z,80.24
2023-03-06T02:45:24.618Z,80.09
2023-03-06T02:47:55.205Z,80.11
2023-03-06T02:50:25.824Z,80.05
2023-03-06T02:52:56.189Z,80.07
2023-03-06T02:55:26.821Z,79.88
2023-03-06T02:57:57.186Z,80.13
2023-03-06T03:00:27.968Z,79.87
2023-03-06T03:02:58.528Z,79.99
2023-03-06T03:05:28.853Z,80.26
2023-03-06T03:07:59.363Z,79.84
2023-03-06T03:10:29.887Z,80.16
2023-03-06T03:13:00.302Z,80.15
2023-03-06T03:15:30.953Z,80.29
2023-03-06T03:18:01.274Z,79.97
2023-03-06T03:20:31.588Z,80.33
2023-03-06T03:23:01.861Z,80.21
2023-03-06T03:25:32.145Z,80.29
2023-03-06T03:28:02.476Z,80.28
2023-03-06T03:30:32.871Z,80.53
2023-03-06T03:33:03.570Z,80.33
2023-03-06T03:35:33.990Z,80.37
2023-03-06T03:38:04.690Z,80.23
2023-03-06T03:40:34.946Z,80.29
2023-03-06T03:43:05.544Z,80.46
2023-03-06T03:45:35.910Z,80.48
2023-03-06T03:48:06.960Z,80.31
2023-03-06T03:50:37.571Z,80.58
2023-03-06T03:53:07.962Z,80.44
2023-03-06T03:55:39.316Z,80.82
2023-03-06T03:58:09.645Z,80.82
2023-03-06T04:00:40.234Z,80.75
2023-03-06T04:03:10.705Z,80.82
2023-03-06T04:05:41.008Z,80.85
2023-03-06T04:08:11.360Z,80.62
2023-03-06T04:10:41.996Z,80.93
2023-03-06T04:13:12.701Z,81.11
2023-03-06T04:15:43.298Z,80.83
2023-03-06T04:18:16.220Z,81.06
2023-03-06T04:20:47.453Z,81.18
2023-03-06T04:23:18.481Z,81.21
2023-03-06T04:25:49.229Z,81.13
2023-03-06T04:28:19.569Z,81.53
2023-03-06T04:30:50.024Z,81.63
2023-03-06T04:33:21.039Z,82.10
2023-03-06T04:35:51.979Z,82.15
2023-03-06T04:38:22.607Z,82.11
2023-03-06T04:40:53.658Z,82.00
2023-03-06T04:43:24.389Z,82.30
2023-03-06T04:45:54.796Z,82.15
2023-03-06T04:48:27.196Z,82.41
2023-03-06T04:50:57.520Z,82.92
2023-03-06T04:53:27.935Z,83.27
2023-03-06T04:55:58.247Z,83.64
2023-03-06T04:58:28.938Z,83.99
2023-03-06T05:00:59.731Z,84.29
2023-03-06T05:03:30.081Z,84.18
2023-03-06T05:06:00.653Z,84.65
2023-03-06T05:08:31.598Z,84.59
2023-03-06T05:11:03.096Z,84.80
2023-03-06T05:13:33.584Z,85.13
2023-03-06T05:16:08.738Z,85.22
2023-03-06T05:18:40.580Z,85.25
2023-03-06T05:21:11.190Z,85.53
2023-03-06T05:23:42.229Z,85.69
2023-03-06T05:26:14.752Z,85.67
2023-03-06T05:28:45.088Z,85.59
2023-03-06T05:31:15.489Z,85.81
2023-03-06T05:33:45.841Z,85.85
2023-03-06T05:36:16.172Z,85.82
2023-03-06T05:38:46.475Z,85.99
2023-03-06T05:41:17.432Z,85.89
2023-03-06T05:43:47.728Z,85.92
2023-03-06T05:46:18.192Z,86.01
2023-03-06T05:48:48.782Z,86.01
2023-03-06T05:51:19.118Z,85.97
2023-03-06T05:53:49.855Z,86.23
2023-03-06T05:56:21.796Z,86.40
2023-03-06T05:58:52.484Z,86.08
2023-03-06T06:01:25.322Z,86.08
2023-03-06T06:03:55.846Z,85.95
2023-03-06T06:06:26.177Z,85.95
2023-03-06T06:08:56.876Z,85.90
2023-03-06T06:11:27.237Z,86.13
2023-03-06T06:13:57.877Z,85.82
2023-03-06T06:16:28.181Z,86.08
2023-03-06T06:18:59.454Z,86.11
2023-03-06T06:21:29.772Z,86.19
2023-03-06T06:24:00.140Z,86.15
2023-03-06T06:26:30.435Z,86.28
2023-03-06T06:29:00.708Z,86.20
2023-03-06T06:31:31.367Z,86.02
2023-03-06T06:34:01.786Z,86.29
2023-03-06T06:36:32.321Z,86.24
2023-03-06T06:39:03.564Z,86.48
2023-03-06T06:41:51.133Z,86.55
2023-03-06T06:44:25.309Z,86.83
2023-03-06T06:49:50.228Z,87.18
2023-03-06T06:52:21.388Z,86.73
2023-03-06T06:54:51.748Z,86.80
2023-03-06T06:57:22.202Z,86.84
2023-03-06T06:59:54.183Z,87.03
2023-03-06T07:02:25.006Z,86.80
2023-03-06T07:05:05.063Z,86.76
2023-03-06T07:07:39.311Z,86.33
2023-03-06T07:10:16.431Z,86.32
2023-03-06T07:12:46.859Z,86.00
2023-03-06T07:15:18.883Z,85.79
2023-03-06T07:17:50.245Z,85.90
2023-03-06T07:20:21.848Z,85.97
2023-03-06T07:22:52.589Z,86.28
2023-03-06T07:25:23.994Z,85.99
2023-03-06T07:27:55.830Z,86.12
2023-03-06T07:30:26.758Z,85.89
2023-03-06T07:32:59.775Z,85.50
2023-03-06T07:35:30.716Z,85.92
2023-03-06T07:38:01.513Z,85.63
2023-03-06T07:40:32.238Z,85.78
2023-03-06T07:43:17.146Z,85.78
2023-03-06T07:45:56.102Z,85.71
2023-03-06T07:48:26.517Z,85.96
2023-03-06T07:51:02.660Z,85.63
2023-03-06T07:53:34.335Z,85.21
2023-03-06T07:56:08.749Z,84.92
2023-03-06T07:58:40.672Z,84.86
2023-03-06T08:01:13.078Z,84.81
2023-03-06T08:03:43.514Z,85.02
2023-03-06T08:06:16.339Z,84.69
2023-03-06T08:08:49.141Z,84.42
2023-03-06T08:11:22.262Z,84.40
2023-03-06T08:13:53.589Z,84.83
2023-03-06T08:16:25.810Z,84.56
2023-03-06T08:18:57.072Z,84.22
2023-03-06T08:21:28.936Z,84.63
2023-03-06T08:24:00.017Z,84.61
2023-03-06T08:26:34.702Z,84.38
2023-03-06T08:29:06.035Z,84.56
2023-03-06T08:31:38.048Z,84.76
2023-03-06T08:34:11.845Z,84.77
2023-03-06T08:36:42.568Z,84.68
2023-03-06T08:39:14.240Z,84.44
2023-03-06T08:41:45.461Z,84.55
2023-03-06T08:44:15.976Z,84.69
2023-03-06T08:46:46.331Z,84.76
2023-03-06T08:49:16.966Z,84.70
2023-03-06T08:51:47.551Z,84.50
2023-03-06T08:54:18.046Z,84.86
2023-03-06T08:56:48.402Z,84.94
2023-03-06T08:59:18.773Z,84.68
2023-03-06T09:01:49.473Z,84.42
2023-03-06T09:04:20.092Z,84.47
2023-03-06T09:06:50.545Z,84.58
2023-03-06T09:09:20.884Z,84.27
2023-03-06T09:11:53.579Z,84.46
2023-03-06T09:14:23.898Z,84.67
2023-03-06T09:16:54.533Z,84.42
2023-03-06T09:19:25.853Z,84.03
2023-03-06T09:21:57.835Z,84.07
2023-03-06T09:24:28.455Z,83.96
2023-03-06T09:26:58.792Z,83.52
2023-03-06T09:29:29.579Z,83.97
2023-03-06T09:32:00.156Z,83.98
2023-03-06T09:34:30.615Z,84.28
2023-03-06T09:37:02.527Z,83.87
2023-03-06T09:39:32.905Z,84.40
2023-03-06T09:42:04.009Z,84.44
2023-03-06T09:44:36.384Z,84.28
2023-03-06T09:47:28.624Z,84.80
2023-03-06T09:50:11.400Z,85.41
2023-03-06T09:52:53.529Z,85.60
2023-03-06T09:55:27.849Z,85.81
2023-03-06T09:58:07.173Z,85.87
2023-03-06T10:00:41.816Z,85.73
2023-03-06T10:03:22.569Z,85.72
2023-03-06T10:05:58.417Z,85.76
2023-03-06T10:08:35.657Z,85.85
2023-03-06T10:11:09.617Z,85.34
2023-03-06T10:13:44.209Z,85.14
2023-03-06T10:16:24.241Z,85.71
2023-03-06T10:18:55.655Z,85.84
2023-03-06T10:21:44.513Z,85.78
2023-03-06T10:24:25.075Z,85.90
2023-03-06T10:27:05.571Z,85.59
2023-03-06T10:29:56.381Z,85.88
2023-03-06T10:32:48.221Z,85.75
2023-03-06T10:35:19.707Z,86.45
2023-03-06T10:37:50.638Z,86.77
2023-03-06T10:40:36.959Z,86.88
2023-03-06T10:43:12.487Z,87.13
2023-03-06T10:45:52.354Z,87.32
2023-03-06T10:48:25.096Z,87.45
2023-03-06T10:51:18.038Z,87.69
2023-03-06T10:53:55.407Z,87.79
2023-03-06T10:56:34.612Z,87.79
2023-03-06T10:59:16.210Z,87.76
2023-03-06T11:01:49.304Z,87.64
2023-03-06T11:04:26.561Z,87.40
2023-03-06T11:07:15.736Z,87.36
2023-03-06T11:10:01.753Z,86.62
2023-03-06T11:12:33.597Z,86.88
2023-03-06T11:15:20.954Z,87.10
2023-03-06T11:18:00.963Z,86.89
2023-03-06T11:20:48.864Z,86.74
2023-03-06T11:23:27.321Z,86.31
2023-03-06T11:26:03.362Z,86.42
2023-03-06T11:28:40.346Z,86.50
2023-03-06T11:31:15.461Z,86.68
2023-03-06T11:33:52.691Z,86.14
2023-03-06T11:36:30.491Z,86.26
2023-03-06T11:39:00.894Z,85.65
2023-03-06T11:41:39.018Z,85.31
2023-03-06T11:44:23.052Z,84.71
2023-03-06T11:47:02.872Z,85.19
2023-03-06T11:49:40.396Z,85.02
2023-03-06T11:52:18.511Z,85.18
2023-03-06T11:54:53.074Z,85.18
2023-03-06T11:57:26.696Z,84.04
2023-03-06T12:00:12.895Z,84.04
2023-03-06T12:03:10.664Z,83.94
2023-03-06T12:05:43.722Z,83.91
2023-03-06T12:08:38.752Z,84.25
2023-03-06T12:14:14.373Z,83.77
2023-03-06T12:17:06.942Z,83.66
2023-03-06T12:19:52.225Z,83.16
2023-03-06T12:22:38.449Z,83.38
2023-03-06T12:25:25.561Z,83.30
2023-03-06T12:28:09.473Z,83.43
2023-03-06T12:31:02.460Z,83.60
2023-03-06T12:33:41.099Z,83.07
2023-03-06T12:36:30.780Z,82.84
2023-03-06T12:39:17.504Z,82.53
2023-03-06T12:42:04.951Z,82.17
2023-03-06T12:45:00.701Z,81.72
2023-03-06T12:47:37.110Z,81.69
2023-03-06T12:50:20.294Z,81.45
2023-03-06T12:52:51.980Z,80.95
2023-03-06T12:55:25.743Z,81.12
2023-03-06T12:57:56.289Z,80.85
2023-03-06T13:01:04.922Z,80.17
2023-03-06T13:03:54.754Z,79.90
2023-03-06T13:06:49.896Z,79.72
2023-03-06T13:09:32.890Z,79.63
2023-03-06T13:12:39.440Z,78.32
2023-03-06T13:15:43.520Z,77.92
2023-03-06T13:18:57.190Z,77.99
2023-03-06T13:21:46.217Z,78.48
2023-03-06T13:24:25.200Z,77.87
2023-03-06T13:27:00.247Z,77.63
2023-03-06T13:30:04.072Z,77.82
2023-03-06T13:32:36.413Z,78.21
2023-03-06T13:35:43.145Z,78.76
2023-03-06T13:41:45.681Z,78.29
2023-03-06T13:44:47.338Z,78.20
2023-03-06T13:48:10.619Z,77.69
2023-03-06T13:50:49.649Z,77.33
2023-03-06T13:54:08.358Z,76.55
2023-03-06T13:56:58.441Z,76.43
2023-03-06T13:59:56.982Z,76.16
2023-03-06T14:02:55.832Z,75.92
2023-03-06T14:05:35.637Z,75.66
2023-03-06T14:08:11.020Z,75.89
2023-03-06T14:10:42.899Z,75.82
2023-03-06T14:13:20.801Z,75.40
2023-03-06T14:15:53.123Z,75.01
2023-03-06T14:18:27.365Z,74.76
2023-03-06T14:21:00.531Z,74.64
2023-03-06T14:23:35.327Z,74.16
2023-03-06T14:26:15.507Z,74.38
2023-03-06T14:28:55.049Z,74.46
2023-03-06T14:31:27.220Z,74.52
2023-03-06T14:33:59.945Z,74.15
2023-03-06T14:36:35.698Z,74.47
2023-03-06T14:39:09.820Z,74.52
2023-03-06T14:41:40.998Z,74.42
2023-03-06T14:44:17.761Z,74.77
2023-03-06T14:46:49.793Z,74.98
2023-03-06T14:49:22.073Z,74.80
2023-03-06T14:51:54.133Z,75.17
2023-03-06T14:54:28.718Z,75.12
2023-03-06T14:57:05.862Z,75.33
2023-03-06T14:59:43.379Z,74.67
2023-03-06T15:02:18.290Z,74.80
2023-03-06T15:04:52.498Z,75.01
2023-03-06T15:07:27.632Z,74.98
2023-03-06T15:09:58.823Z,74.94
2023-03-06T15:12:38.581Z,75.08
2023-03-06T15:15:28.694Z,75.02
2023-03-06T15:17:59.866Z,75.07
2023-03-06T15:20:52.062Z,75.00
2023-03-06T15:23:26.584Z,74.91
2023-03-06T15:25:59.692Z,75.13
2023-03-06T15:28:35.617Z,75.47
2023-03-06T15:31:22.222Z,75.58
2023-03-06T15:34:23.275Z,75.58
2023-03-06T15:36:56.945Z,75.67
2023-03-06T15:39:38.393Z,75.56
2023-03-06T15:42:20.433Z,75.82
2023-03-06T15:44:54.048Z,75.74
2023-03-06T15:47:25.425Z,75.63
2023-03-06T15:49:56.871Z,75.57
2023-03-06T15:52:27.881Z,75.39
2023-03-06T15:54:58.783Z,75.26
2023-03-06T15:57:30.204Z,75.10
2023-03-06T16:00:01.879Z,74.59
2023-03-06T16:02:33.356Z,74.70
2023-03-06T16:05:05.713Z,74.97
2023-03-06T16:07:36.241Z,74.98
2023-03-06T16:10:07.772Z,75.02
2023-03-06T16:12:38.470Z,74.90
2023-03-06T16:15:20.981Z,74.48
2023-03-06T16:17:52.503Z,74.10
2023-03-06T16:20:25.974Z,74.32
2023-03-06T16:22:57.112Z,74.36
2023-03-06T16:25:29.475Z,74.40
2023-03-06T16:28:01.048Z,74.62
2023-03-06T16:30:35.376Z,74.76
2023-03-06T16:33:06.481Z,74.71
2023-03-06T16:35:36.952Z,74.91
2023-03-06T16:38:07.405Z,74.82
2023-03-06T16:40:41.244Z,74.92
2023-03-06T16:43:13.550Z,75.21
2023-03-06T16:45:45.006Z,75.14
2023-03-06T16:48:18.238Z,75.43
2023-03-06T16:50:48.691Z,75.39
2023-03-06T16:53:19.749Z,75.79
2023-03-06T16:55:50.434Z,75.54
2023-03-06T16:58:21.812Z,75.66
2023-03-06T17:00:52.550Z,75.55
2023-03-06T17:03:25.143Z,75.22
2023-03-06T17:05:56.261Z,75.32
2023-03-06T17:08:27.023Z,75.33
2023-03-06T17:10:57.545Z,75.79
2023-03-06T17:13:28.090Z,75.84
2023-03-06T17:15:59.459Z,75.99
2023-03-06T17:18:32.300Z,75.90
2023-03-06T17:21:02.849Z,76.36
2023-03-06T17:23:33.468Z,76.51
2023-03-06T17:26:09.860Z,76.41
2023-03-06T17:28:40.596Z,76.45
2023-03-06T17:31:19.249Z,76.05
2023-03-06T17:33:51.297Z,76.11
2023-03-06T17:36:22.159Z,76.40
2023-03-06T17:38:55.344Z,76.28
2023-03-06T17:41:26.578Z,76.50
2023-03-06T17:43:58.178Z,76.51
2023-03-06T17:46:28.650Z,76.56
2023-03-06T17:48:59.288Z,76.79
2023-03-06T17:51:29.842Z,76.79
2023-03-06T17:54:00.445Z,76.76
2023-03-06T17:56:30.808Z,76.64
2023-03-06T17:59:01.516Z,76.56
2023-03-06T18:01:32.751Z,76.72
2023-03-06T18:04:06.456Z,77.25
2023-03-06T18:06:38.923Z,76.80
2023-03-06T18:09:11.116Z,76.79
2023-03-06T18:11:42.715Z,76.74
2023-03-06T18:14:13.451Z,76.85
2023-03-06T18:16:43.890Z,76.60
2023-03-06T18:19:14.290Z,76.62
2023-03-06T18:21:47.288Z,77.02
2023-03-06T18:24:18.262Z,76.99
2023-03-06T18:26:48.953Z,77.21
2023-03-06T18:29:19.293Z,77.30
2023-03-06T18:31:50.398Z,77.34
2023-03-06T18:34:21.037Z,77.65
2023-03-06T18:36:52.785Z,77.77
2023-03-06T18:39:23.236Z,77.77
2023-03-06T18:41:55.813Z,77.78
2023-03-06T18:44:26.185Z,77.93
2023-03-06T18:46:56.508Z,78.25
2023-03-06T18:49:27.519Z,78.10
2023-03-06T18:51:58.157Z,78.35
2023-03-06T18:54:29.651Z,78.76
2023-03-06T18:57:00.381Z,78.71
2023-03-06T18:59:30.893Z,78.85
2023-03-06T19:02:01.172Z,78.82
2023-03-06T19:04:32.013Z,78.95
2023-03-06T19:07:02.563Z,78.67
2023-03-06T19:09:33.578Z,78.85
2023-03-06T19:12:04.393Z,78.82
2023-03-06T19:14:36.263Z,79.25
2023-03-06T19:17:07.112Z,79.25
2023-03-06T19:19:37.725Z,79.22
2023-03-06T19:22:08.514Z,79.31
2023-03-06T19:24:39.122Z,79.31
2023-03-06T19:27:11.413Z,79.27
2023-03-06T19:29:42.326Z,79.62
2023-03-06T19:32:12.800Z,79.74
2023-03-06T19:34:43.356Z,79.67
2023-03-06T19:37:13.978Z,80.01
2023-03-06T19:39:45.371Z,80.12
2023-03-06T19:42:15.962Z,80.41
2023-03-06T19:44:46.979Z,80.36
2023-03-06T19:47:17.625Z,80.31
2023-03-06T19:49:48.298Z,80.48
2023-03-06T19:52:19.305Z,80.56
2023-03-06T19:54:49.942Z,80.59
2023-03-06T19:57:20.890Z,80.85
2023-03-06T19:59:53.027Z,81.00
2023-03-06T20:02:26.596Z,80.76
2023-03-06T20:04:57.246Z,80.92
2023-03-06T20:07:27.769Z,80.92
2023-03-06T20:10:00.725Z,80.72
2023-03-06T20:12:35.581Z,81.00
2023-03-06T20:15:07.765Z,81.14
2023-03-06T20:17:40.392Z,81.26
2023-03-06T20:20:13.442Z,81.22
2023-03-06T20:22:43.707Z,81.39
2023-03-06T20:25:14.456Z,81.38
2023-03-06T20:27:45.149Z,81.46
2023-03-06T20:30:17.093Z,81.86
2023-03-06T20:32:48.236Z,81.75
2023-03-06T20:35:19.313Z,82.03
2023-03-06T20:37:50.660Z,81.91
2023-03-06T20:40:21.737Z,82.11
2023-03-06T20:42:52.722Z,81.92
2023-03-06T20:45:23.154Z,81.94
2023-03-06T20:47:56.173Z,82.03
2023-03-06T20:50:27.008Z,81.98
2023-03-06T20:52:58.767Z,82.38
2023-03-06T20:55:29.089Z,82.28
2023-03-06T20:58:00.020Z,82.43
2023-03-06T21:00:30.385Z,82.54
2023-03-06T21:03:00.696Z,82.38
2023-03-06T21:05:31.031Z,82.25
2023-03-06T21:08:01.300Z,82.47
2023-03-06T21:10:31.924Z,82.54
2023-03-06T21:13:02.582Z,82.28
2023-03-06T21:15:33.292Z,82.28
2023-03-06T21:18:03.659Z,82.33
2023-03-06T21:20:34.580Z,82.60
2023-03-06T21:23:05.352Z,82.80
2023-03-06T21:25:36.663Z,83.00
2023-03-06T21:28:07.007Z,83.34
2023-03-06T21:30:37.332Z,83.39
2023-03-06T21:33:10.524Z,83.56
2023-03-06T21:35:42.326Z,83.63
2023-03-06T21:38:14.442Z,83.82
2023-03-06T21:40:45.680Z,83.70
2023-03-06T21:43:17.456Z,83.75
2023-03-06T21:45:52.663Z,83.66
2023-03-06T21:48:23.453Z,83.56
2023-03-06T21:50:54.117Z,83.61
2023-03-06T21:53:25.270Z,83.66
2023-03-06T21:55:56.084Z,83.64
2023-03-06T21:58:26.377Z,83.70
2023-03-06T22:00:57.097Z,83.85
2023-03-06T22:03:28.726Z,83.91
2023-03-06T22:06:07.777Z,83.74
2023-03-06T22:08:38.310Z,84.07
2023-03-06T22:11:10.706Z,83.88
2023-03-06T22:13:41.530Z,84.01
2023-03-06T22:16:12.674Z,83.87
2023-03-06T22:18:46.976Z,84.10
2023-03-06T22:21:19.873Z,84.03
2023-03-06T22:23:52.740Z,83.78
2023-03-06T22:26:23.413Z,84.01
2023-03-06T22:28:53.833Z,84.08
2023-03-06T22:31:26.175Z,84.10
2023-03-06T22:33:58.744Z,84.14
2023-03-06T22:36:31.528Z,84.06
2023-03-06T22:39:04.108Z,84.16
2023-03-06T22:41:34.480Z,84.06
2023-03-06T22:44:05.630Z,83.99
2023-03-06T22:46:36.131Z,84.14
2023-03-06T22:49:06.821Z,84.11
2023-03-06T22:51:37.661Z,84.34
2023-03-06T22:54:08.796Z,84.22
2023-03-06T22:56:39.298Z,84.17
2023-03-06T22:59:09.781Z,84.25
2023-03-06T23:01:40.518Z,84.29
2023-03-06T23:04:12.072Z,84.29
2023-03-06T23:06:44.622Z,84.01
2023-03-06T23:09:20.358Z,84.08
2023-03-06T23:11:51.025Z,83.96
2023-03-06T23:14:21.720Z,84.07
2023-03-06T23:16:52.662Z,84.09
2023-03-06T23:19:23.018Z,83.81
2023-03-06T23:21:53.340Z,83.92
2023-03-06T23:24:23.666Z,83.91
2023-03-06T23:26:53.969Z,83.56
2023-03-06T23:29:24.306Z,83.64
2023-03-06T23:31:54.877Z,83.44
2023-03-06T23:34:25.359Z,83.50
2023-03-06T23:36:56.197Z,83.28
2023-03-06T23:39:26.518Z,83.33
2023-03-06T23:41:57.225Z,83.26
2023-03-06T23:44:27.905Z,83.27
2023-03-06T23:46:58.227Z,83.23
2023-03-06T23:49:28.565Z,83.22
2023-03-06T23:51:59.585Z,82.97
2023-03-06T23:54:30.124Z,83.05
2023-03-06T23:57:01.068Z,82.59
2023-03-06T23:59:31.753Z,82.68
